Chapletown, United Kingdom
Current Conditions -  °F | °C
As of 11:20 PM on Wednesday 28 Jan 2015 (Local Time) from EGCN Reporting Station
Moderate Snow Moderate Snow  
Wind Chill: 22°   Ceiling: 300
Heat Index: 34°   Visibility: 0.93mi
Dew Point: 32°   Wind: 21mph
Humidity: 93%   Direction: 250°WSW
Pressure: 29.35"   Gusts: 32mph
Location:  53.47°N, 1.47°W
Report Text: EGCN 282220Z 25018G28KT 1500 RASN BKN003 BKN008 BKN013 01/M00 Q0994
Loading
Personal Weather Stations






























Interactive Weather Map New forecast layout! Learn more

10-Day Weather Forecast

Advertisements
Track Severe Weather on mobile